sensor_id;sensor_type;location;lat;lon;timestamp;P1;P2;P0
42002;PMS7003;27693;50.506;30.832;2024-03-25T00:00:03;17.70;11.30;8.80
42002;PMS7003;27693;50.506;30.832;2024-03-25T00:01:08;12.80;11.50;8.20
42002;PMS7003;27693;50.506;30.832;2024-03-25T00:02:10;17.60;13.40;9.40
42002;PMS7003;27693;50.506;30.832;2024-03-25T00:03:12;19.40;15.30;10.50
42002;PMS7003;27693;50.506;30.832;2024-03-25T00:04:15;19.50;16.10;11.20
42002;PMS7003;27693;50.506;30.832;2024-03-25T00:05:18;17.50;14.30;10.40
42002;PMS7003;27693;50.506;30.832;2024-03-25T00:06:22;17.00;13.10;9.20
42002;PMS7003;27693;50.506;30.832;2024-03-25T00:07:25;17.40;13.40;9.60
42002;PMS7003;27693;50.506;30.832;2024-03-25T00:08:27;19.40;16.90;11.80
42002;PMS7003;27693;50.506;30.832;2024-03-25T00:09:29;20.10;15.50;11.40
42002;PMS7003;27693;50.506;30.832;2024-03-25T00:10:31;23.30;16.70;11.40
42002;PMS7003;27693;50.506;30.832;2024-03-25T00:11:34;23.40;18.70;12.20
42002;PMS7003;27693;50.506;30.832;2024-03-25T00:12:36;18.90;15.30;11.60
42002;PMS7003;27693;50.506;30.832;2024-03-25T00:13:38;22.50;18.90;12.90
42002;PMS7003;27693;50.506;30.832;2024-03-25T00:14:41;21.91;18.00;11.91
42002;PMS7003;27693;50.506;30.832;2024-03-25T00:15:44;19.10;17.80;12.00
42002;PMS7003;27693;50.506;30.832;2024-03-25T00:16:46;22.70;19.20;12.90
42002;PMS7003;27693;50.506;30.832;2024-03-25T00:17:49;16.90;15.20;11.80
42002;PMS7003;27693;50.506;30.832;2024-03-25T00:18:52;13.40;10.20;7.60
42002;PMS7003;27693;50.506;30.832;2024-03-25T00:19:54;22.00;16.10;10.60
42002;PMS7003;27693;50.506;30.832;2024-03-25T00:20:57;19.50;16.00;10.60
42002;PMS7003;27693;50.506;30.832;2024-03-25T00:22:00;18.09;16.00;10.09
42002;PMS7003;27693;50.506;30.832;2024-03-25T00:23:02;25.40;17.50;12.40
42002;PMS7003;27693;50.506;30.832;2024-03-25T00:24:05;17.70;16.70;12.00
42002;PMS7003;27693;50.506;30.832;2024-03-25T00:25:07;21.91;16.82;11.91
42002;PMS7003;27693;50.506;30.832;2024-03-25T00:26:10;21.00;17.30;13.30
42002;PMS7003;27693;50.506;30.832;2024-03-25T00:27:13;25.00;18.70;13.80
42002;PMS7003;27693;50.506;30.832;2024-03-25T00:28:16;21.50;17.30;12.30
42002;PMS7003;27693;50.506;30.832;2024-03-25T00:29:18;21.50;16.20;11.90
42002;PMS7003;27693;50.506;30.832;2024-03-25T00:30:21;20.40;18.10;12.00
42002;PMS7003;27693;50.506;30.832;2024-03-25T00:31:24;25.50;18.70;13.00
42002;PMS7003;27693;50.506;30.832;2024-03-25T00:32:26;24.30;17.80;11.60
42002;PMS7003;27693;50.506;30.832;2024-03-25T00:33:28;23.50;18.70;14.30
42002;PMS7003;27693;50.506;30.832;2024-03-25T00:34:31;27.60;20.70;14.00
42002;PMS7003;27693;50.506;30.832;2024-03-25T00:35:34;19.09;17.00;11.91
42002;PMS7003;27693;50.506;30.832;2024-03-25T00:36:36;22.10;20.80;13.90
42002;PMS7003;27693;50.506;30.832;2024-03-25T00:37:39;27.00;20.60;15.20
42002;PMS7003;27693;50.506;30.832;2024-03-25T00:38:42;23.50;18.20;14.00
42002;PMS7003;27693;50.506;30.832;2024-03-25T00:39:45;19.20;14.50;9.30
42002;PMS7003;27693;50.506;30.832;2024-03-25T00:40:47;17.50;15.20;14.10
42002;PMS7003;27693;50.506;30.832;2024-03-25T00:41:49;23.40;19.40;14.20
42002;PMS7003;27693;50.506;30.832;2024-03-25T00:42:52;25.60;20.60;14.40
42002;PMS7003;27693;50.506;30.832;2024-03-25T00:43:55;23.45;17.73;12.55
42002;PMS7003;27693;50.506;30.832;2024-03-25T00:44:57;23.00;17.70;12.90
42002;PMS7003;27693;50.506;30.832;2024-03-25T00:45:59;21.00;16.70;12.30
42002;PMS7003;27693;50.506;30.832;2024-03-25T00:47:02;21.90;17.40;11.80
42002;PMS7003;27693;50.506;30.832;2024-03-25T00:48:05;17.60;15.50;11.00
42002;PMS7003;27693;50.506;30.832;2024-03-25T00:49:08;19.00;15.30;9.80
42002;PMS7003;27693;50.506;30.832;2024-03-25T00:50:11;27.60;18.30;14.60
42002;PMS7003;27693;50.506;30.832;2024-03-25T00:51:14;23.40;19.60;14.00
42002;PMS7003;27693;50.506;30.832;2024-03-25T00:52:16;22.00;18.20;13.10
42002;PMS7003;27693;50.506;30.832;2024-03-25T00:53:18;26.60;19.80;13.70
42002;PMS7003;27693;50.506;30.832;2024-03-25T00:54:20;23.00;20.10;14.00
42002;PMS7003;27693;50.506;30.832;2024-03-25T00:55:26;29.50;23.10;13.40
42002;PMS7003;27693;50.506;30.832;2024-03-25T00:56:29;37.70;27.30;17.80
42002;PMS7003;27693;50.506;30.832;2024-03-25T00:57:32;24.80;18.50;14.20
42002;PMS7003;27693;50.506;30.832;2024-03-25T00:58:35;21.20;17.00;13.10
42002;PMS7003;27693;50.506;30.832;2024-03-25T00:59:37;23.30;20.00;14.80
42002;PMS7003;27693;50.506;30.832;2024-03-25T01:00:40;28.00;23.70;17.80
42002;PMS7003;27693;50.506;30.832;2024-03-25T01:01:43;21.70;19.50;14.30
42002;PMS7003;27693;50.506;30.832;2024-03-25T01:02:45;25.20;18.90;13.20
42002;PMS7003;27693;50.506;30.832;2024-03-25T01:03:47;20.80;17.50;12.50
42002;PMS7003;27693;50.506;30.832;2024-03-25T01:04:50;19.30;15.30;11.40
42002;PMS7003;27693;50.506;30.832;2024-03-25T01:05:52;17.40;11.70;8.80
42002;PMS7003;27693;50.506;30.832;2024-03-25T01:06:55;23.27;16.45;12.18
42002;PMS7003;27693;50.506;30.832;2024-03-25T01:07:58;16.90;13.80;9.10
42002;PMS7003;27693;50.506;30.832;2024-03-25T01:09:00;18.20;14.80;9.70
42002;PMS7003;27693;50.506;30.832;2024-03-25T01:10:03;19.00;14.20;10.40
42002;PMS7003;27693;50.506;30.832;2024-03-25T01:11:06;12.40;9.20;6.20
42002;PMS7003;27693;50.506;30.832;2024-03-25T01:12:08;15.70;14.40;10.30
42002;PMS7003;27693;50.506;30.832;2024-03-25T01:13:11;17.60;14.00;8.60
42002;PMS7003;27693;50.506;30.832;2024-03-25T01:14:13;19.80;16.70;11.90
42002;PMS7003;27693;50.506;30.832;2024-03-25T01:15:15;22.30;18.80;13.90
42002;PMS7003;27693;50.506;30.832;2024-03-25T01:16:17;28.50;18.60;12.00
42002;PMS7003;27693;50.506;30.832;2024-03-25T01:17:20;26.50;21.80;15.50
42002;PMS7003;27693;50.506;30.832;2024-03-25T01:18:22;25.30;20.90;15.00
42002;PMS7003;27693;50.506;30.832;2024-03-25T01:19:25;25.50;21.00;14.40
42002;PMS7003;27693;50.506;30.832;2024-03-25T01:20:28;28.40;18.80;14.10
42002;PMS7003;27693;50.506;30.832;2024-03-25T01:21:30;24.30;19.60;13.90
42002;PMS7003;27693;50.506;30.832;2024-03-25T01:22:32;21.10;18.00;14.20
42002;PMS7003;27693;50.506;30.832;2024-03-25T01:23:35;20.50;18.80;13.30
42002;PMS7003;27693;50.506;30.832;2024-03-25T01:24:37;21.10;13.70;9.70
42002;PMS7003;27693;50.506;30.832;2024-03-25T01:25:39;20.80;18.20;12.60
42002;PMS7003;27693;50.506;30.832;2024-03-25T01:26:41;30.10;22.70;15.90
42002;PMS7003;27693;50.506;30.832;2024-03-25T01:27:43;32.90;25.40;17.90
42002;PMS7003;27693;50.506;30.832;2024-03-25T01:28:46;36.10;29.30;19.00
42002;PMS7003;27693;50.506;30.832;2024-03-25T01:29:48;39.60;30.00;21.20
42002;PMS7003;27693;50.506;30.832;2024-03-25T01:30:51;41.00;32.40;21.30
42002;PMS7003;27693;50.506;30.832;2024-03-25T01:31:53;37.30;32.20;21.60
42002;PMS7003;27693;50.506;30.832;2024-03-25T01:32:55;46.60;37.30;23.90
42002;PMS7003;27693;50.506;30.832;2024-03-25T01:33:58;50.00;36.60;23.30
42002;PMS7003;27693;50.506;30.832;2024-03-25T01:35:00;40.50;30.50;19.40
42002;PMS7003;27693;50.506;30.832;2024-03-25T01:36:03;38.20;32.10;21.40
42002;PMS7003;27693;50.506;30.832;2024-03-25T01:37:05;40.90;33.10;21.60
42002;PMS7003;27693;50.506;30.832;2024-03-25T01:38:08;38.60;29.90;20.10
42002;PMS7003;27693;50.506;30.832;2024-03-25T01:39:10;32.60;26.80;18.50
42002;PMS7003;27693;50.506;30.832;2024-03-25T01:40:12;33.60;24.80;16.90
42002;PMS7003;27693;50.506;30.832;2024-03-25T01:41:19;27.00;21.80;15.40
42002;PMS7003;27693;50.506;30.832;2024-03-25T01:42:22;28.70;24.80;15.80
42002;PMS7003;27693;50.506;30.832;2024-03-25T01:43:24;25.60;21.30;14.80
42002;PMS7003;27693;50.506;30.832;2024-03-25T01:44:26;24.10;20.10;14.10
42002;PMS7003;27693;50.506;30.832;2024-03-25T01:45:29;27.20;18.60;14.60
42002;PMS7003;27693;50.506;30.832;2024-03-25T01:46:33;29.20;23.90;16.50
42002;PMS7003;27693;50.506;30.832;2024-03-25T01:47:35;28.80;22.10;15.50
42002;PMS7003;27693;50.506;30.832;2024-03-25T01:48:40;33.50;30.00;20.30
42002;PMS7003;27693;50.506;30.832;2024-03-25T01:49:42;33.10;24.00;16.50
42002;PMS7003;27693;50.506;30.832;2024-03-25T01:50:45;31.60;24.10;17.20
42002;PMS7003;27693;50.506;30.832;2024-03-25T01:51:48;30.18;25.09;18.09
42002;PMS7003;27693;50.506;30.832;2024-03-25T01:52:50;30.20;24.70;18.20
42002;PMS7003;27693;50.506;30.832;2024-03-25T01:53:53;33.70;30.20;20.50
42002;PMS7003;27693;50.506;30.832;2024-03-25T01:54:58;40.90;32.10;21.20
42002;PMS7003;27693;50.506;30.832;2024-03-25T01:56:00;38.00;29.70;20.50
42002;PMS7003;27693;50.506;30.832;2024-03-25T01:57:04;43.00;33.20;22.20
42002;PMS7003;27693;50.506;30.832;2024-03-25T01:58:07;38.55;31.36;22.09
42002;PMS7003;27693;50.506;30.832;2024-03-25T01:59:10;36.82;31.73;21.09
42002;PMS7003;27693;50.506;30.832;2024-03-25T02:00:14;38.00;30.20;20.70
42002;PMS7003;27693;50.506;30.832;2024-03-25T02:01:20;25.90;24.20;15.90
42002;PMS7003;27693;50.506;30.832;2024-03-25T02:02:24;17.90;12.80;9.20
42002;PMS7003;27693;50.506;30.832;2024-03-25T02:03:27;18.80;14.30;10.40
42002;PMS7003;27693;50.506;30.832;2024-03-25T02:04:30;13.50;11.50;8.50
42002;PMS7003;27693;50.506;30.832;2024-03-25T02:05:34;13.30;10.70;8.00
42002;PMS7003;27693;50.506;30.832;2024-03-25T02:06:37;17.50;14.70;11.00
42002;PMS7003;27693;50.506;30.832;2024-03-25T02:07:43;14.50;12.20;9.10
42002;PMS7003;27693;50.506;30.832;2024-03-25T02:08:46;14.10;11.10;8.70
42002;PMS7003;27693;50.506;30.832;2024-03-25T02:09:51;22.50;15.70;11.40
42002;PMS7003;27693;50.506;30.832;2024-03-25T02:10:55;23.90;18.80;13.00
42002;PMS7003;27693;50.506;30.832;2024-03-25T02:12:00;20.80;18.00;12.50
42002;PMS7003;27693;50.506;30.832;2024-03-25T02:13:04;23.20;20.00;14.00
42002;PMS7003;27693;50.506;30.832;2024-03-25T02:14:07;23.60;18.50;12.10
42002;PMS7003;27693;50.506;30.832;2024-03-25T02:15:11;20.70;17.30;11.50
42002;PMS7003;27693;50.506;30.832;2024-03-25T02:16:15;23.30;16.30;13.00
42002;PMS7003;27693;50.506;30.832;2024-03-25T02:17:18;24.55;18.64;13.00
42002;PMS7003;27693;50.506;30.832;2024-03-25T02:18:20;23.50;18.50;13.80
42002;PMS7003;27693;50.506;30.832;2024-03-25T02:19:22;20.60;19.00;13.00
42002;PMS7003;27693;50.506;30.832;2024-03-25T02:20:26;26.70;21.00;15.20
42002;PMS7003;27693;50.506;30.832;2024-03-25T02:21:30;20.50;16.90;11.50
42002;PMS7003;27693;50.506;30.832;2024-03-25T02:22:32;27.10;21.50;15.90
42002;PMS7003;27693;50.506;30.832;2024-03-25T02:23:35;24.64;20.00;14.64
42002;PMS7003;27693;50.506;30.832;2024-03-25T02:24:40;27.10;22.60;18.10
42002;PMS7003;27693;50.506;30.832;2024-03-25T02:25:48;24.50;23.00;18.10
42002;PMS7003;27693;50.506;30.832;2024-03-25T02:26:52;26.90;23.90;17.20
42002;PMS7003;27693;50.506;30.832;2024-03-25T02:27:54;27.80;22.20;16.20
42002;PMS7003;27693;50.506;30.832;2024-03-25T02:28:56;15.00;12.00;8.60
42002;PMS7003;27693;50.506;30.832;2024-03-25T02:30:09;25.50;19.20;13.10
42002;PMS7003;27693;50.506;30.832;2024-03-25T02:31:14;12.70;7.10;1.40
42002;PMS7003;27693;50.506;30.832;2024-03-25T02:32:17;21.10;17.00;11.20
42002;PMS7003;27693;50.506;30.832;2024-03-25T02:33:19;22.10;16.40;11.40
42002;PMS7003;27693;50.506;30.832;2024-03-25T02:34:21;24.67;19.67;13.78
42002;PMS7003;27693;50.506;30.832;2024-03-25T02:35:24;24.40;19.90;13.60
42002;PMS7003;27693;50.506;30.832;2024-03-25T02:36:28;24.00;20.40;14.10
42002;PMS7003;27693;50.506;30.832;2024-03-25T02:37:30;22.50;20.40;13.90
42002;PMS7003;27693;50.506;30.832;2024-03-25T02:38:34;26.70;21.00;14.60
42002;PMS7003;27693;50.506;30.832;2024-03-25T02:39:37;23.20;18.30;11.20
42002;PMS7003;27693;50.506;30.832;2024-03-25T02:40:40;27.10;20.00;14.10
42002;PMS7003;27693;50.506;30.832;2024-03-25T02:41:42;27.30;21.20;14.40
42002;PMS7003;27693;50.506;30.832;2024-03-25T02:42:44;26.80;21.70;15.80
42002;PMS7003;27693;50.506;30.832;2024-03-25T02:43:48;30.70;22.90;14.40
42002;PMS7003;27693;50.506;30.832;2024-03-25T02:44:50;27.40;22.90;17.00
42002;PMS7003;27693;50.506;30.832;2024-03-25T02:45:53;30.00;25.40;18.10
42002;PMS7003;27693;50.506;30.832;2024-03-25T02:46:55;38.90;30.30;19.90
42002;PMS7003;27693;50.506;30.832;2024-03-25T02:47:58;36.80;29.70;19.90
42002;PMS7003;27693;50.506;30.832;2024-03-25T02:49:01;35.20;26.50;17.50
42002;PMS7003;27693;50.506;30.832;2024-03-25T02:50:03;30.20;23.60;16.10
42002;PMS7003;27693;50.506;30.832;2024-03-25T02:51:06;30.90;24.60;17.00
42002;PMS7003;27693;50.506;30.832;2024-03-25T02:52:08;29.00;24.00;15.10
42002;PMS7003;27693;50.506;30.832;2024-03-25T02:53:11;27.30;21.70;15.50
42002;PMS7003;27693;50.506;30.832;2024-03-25T02:54:13;32.00;25.70;18.00
42002;PMS7003;27693;50.506;30.832;2024-03-25T02:55:18;24.60;16.90;10.80
42002;PMS7003;27693;50.506;30.832;2024-03-25T02:56:20;32.70;22.10;15.90
42002;PMS7003;27693;50.506;30.832;2024-03-25T02:57:22;24.20;21.80;13.90
42002;PMS7003;27693;50.506;30.832;2024-03-25T02:58:25;22.50;20.20;14.40
42002;PMS7003;27693;50.506;30.832;2024-03-25T02:59:28;23.20;19.10;11.70
42002;PMS7003;27693;50.506;30.832;2024-03-25T03:00:30;19.60;15.60;10.80
42002;PMS7003;27693;50.506;30.832;2024-03-25T03:01:33;20.80;16.80;11.60
42002;PMS7003;27693;50.506;30.832;2024-03-25T03:02:35;15.60;12.80;9.90
42002;PMS7003;27693;50.506;30.832;2024-03-25T03:03:37;14.80;12.40;10.30
42002;PMS7003;27693;50.506;30.832;2024-03-25T03:04:40;19.30;15.50;11.20
42002;PMS7003;27693;50.506;30.832;2024-03-25T03:05:42;19.40;15.80;12.50
42002;PMS7003;27693;50.506;30.832;2024-03-25T03:06:45;21.09;17.00;11.82
42002;PMS7003;27693;50.506;30.832;2024-03-25T03:07:47;20.20;18.00;12.70
42002;PMS7003;27693;50.506;30.832;2024-03-25T03:08:50;20.00;17.10;12.00
42002;PMS7003;27693;50.506;30.832;2024-03-25T03:09:52;26.60;21.30;15.30
42002;PMS7003;27693;50.506;30.832;2024-03-25T03:10:54;37.00;26.50;17.70
42002;PMS7003;27693;50.506;30.832;2024-03-25T03:11:59;33.80;22.60;14.60
42002;PMS7003;27693;50.506;30.832;2024-03-25T03:13:01;28.40;23.50;16.40
42002;PMS7003;27693;50.506;30.832;2024-03-25T03:14:04;29.60;23.80;15.50
42002;PMS7003;27693;50.506;30.832;2024-03-25T03:15:07;32.00;24.60;16.90
42002;PMS7003;27693;50.506;30.832;2024-03-25T03:16:10;43.10;31.90;20.30
42002;PMS7003;27693;50.506;30.832;2024-03-25T03:17:12;41.50;32.20;21.00
42002;PMS7003;27693;50.506;30.832;2024-03-25T03:18:14;52.00;38.40;24.10
42002;PMS7003;27693;50.506;30.832;2024-03-25T03:19:16;52.56;38.22;23.89
42002;PMS7003;27693;50.506;30.832;2024-03-25T03:20:18;54.60;37.00;24.80
42002;PMS7003;27693;50.506;30.832;2024-03-25T03:21:21;44.30;33.20;22.00
42002;PMS7003;27693;50.506;30.832;2024-03-25T03:22:24;39.50;31.70;21.50
42002;PMS7003;27693;50.506;30.832;2024-03-25T03:23:26;42.30;33.30;22.40
42002;PMS7003;27693;50.506;30.832;2024-03-25T03:24:28;38.40;29.70;20.70
42002;PMS7003;27693;50.506;30.832;2024-03-25T03:25:32;42.60;32.70;21.30
42002;PMS7003;27693;50.506;30.832;2024-03-25T03:26:34;47.20;34.30;23.50
42002;PMS7003;27693;50.506;30.832;2024-03-25T03:27:37;39.00;29.90;21.20
42002;PMS7003;27693;50.506;30.832;2024-03-25T03:28:39;42.90;31.80;21.70
42002;PMS7003;27693;50.506;30.832;2024-03-25T03:29:42;39.10;30.30;20.70
42002;PMS7003;27693;50.506;30.832;2024-03-25T03:30:44;18.60;13.10;7.10
42002;PMS7003;27693;50.506;30.832;2024-03-25T03:31:47;44.30;34.00;22.90
42002;PMS7003;27693;50.506;30.832;2024-03-25T03:32:49;42.90;31.30;21.70
42002;PMS7003;27693;50.506;30.832;2024-03-25T03:33:51;43.22;33.44;22.00
42002;PMS7003;27693;50.506;30.832;2024-03-25T03:34:53;37.20;29.70;21.20
42002;PMS7003;27693;50.506;30.832;2024-03-25T03:35:56;30.40;26.40;19.60
42002;PMS7003;27693;50.506;30.832;2024-03-25T03:36:58;37.50;29.80;20.50
42002;PMS7003;27693;50.506;30.832;2024-03-25T03:38:00;28.10;24.60;15.80
42002;PMS7003;27693;50.506;30.832;2024-03-25T03:39:02;30.80;25.50;19.10
42002;PMS7003;27693;50.506;30.832;2024-03-25T03:40:05;30.20;25.40;18.30
42002;PMS7003;27693;50.506;30.832;2024-03-25T03:41:09;24.00;20.50;12.50
42002;PMS7003;27693;50.506;30.832;2024-03-25T03:42:12;32.90;25.00;19.10
42002;PMS7003;27693;50.506;30.832;2024-03-25T03:43:14;29.20;25.80;17.50
42002;PMS7003;27693;50.506;30.832;2024-03-25T03:44:16;29.70;25.80;18.10
42002;PMS7003;27693;50.506;30.832;2024-03-25T03:45:19;27.50;21.00;14.90
42002;PMS7003;27693;50.506;30.832;2024-03-25T03:46:21;43.30;32.10;21.30
42002;PMS7003;27693;50.506;30.832;2024-03-25T03:47:23;42.60;33.40;22.50
42002;PMS7003;27693;50.506;30.832;2024-03-25T03:48:26;46.40;35.40;22.50
42002;PMS7003;27693;50.506;30.832;2024-03-25T03:49:28;52.80;41.20;26.50
42002;PMS7003;27693;50.506;30.832;2024-03-25T03:50:30;37.00;22.20;16.60
42002;PMS7003;27693;50.506;30.832;2024-03-25T03:51:33;67.20;50.60;31.60
42002;PMS7003;27693;50.506;30.832;2024-03-25T03:52:35;66.10;48.60;31.30
42002;PMS7003;27693;50.506;30.832;2024-03-25T03:53:37;60.80;45.10;28.30
42002;PMS7003;27693;50.506;30.832;2024-03-25T03:54:40;55.00;42.00;26.90
42002;PMS7003;27693;50.506;30.832;2024-03-25T03:55:42;41.70;34.60;23.40
42002;PMS7003;27693;50.506;30.832;2024-03-25T03:56:46;45.90;32.10;21.40
42002;PMS7003;27693;50.506;30.832;2024-03-25T03:57:49;34.50;28.40;19.40
42002;PMS7003;27693;50.506;30.832;2024-03-25T03:58:51;32.60;27.00;17.90
42002;PMS7003;27693;50.506;30.832;2024-03-25T03:59:53;34.00;24.50;18.30
42002;PMS7003;27693;50.506;30.832;2024-03-25T04:00:55;31.10;24.00;16.70
42002;PMS7003;27693;50.506;30.832;2024-03-25T04:01:58;23.20;21.10;15.40
42002;PMS7003;27693;50.506;30.832;2024-03-25T04:03:01;20.80;19.80;13.70
42002;PMS7003;27693;50.506;30.832;2024-03-25T04:04:05;24.20;21.00;14.20
42002;PMS7003;27693;50.506;30.832;2024-03-25T04:05:08;25.50;22.50;16.10
42002;PMS7003;27693;50.506;30.832;2024-03-25T04:06:11;25.40;20.40;15.00
42002;PMS7003;27693;50.506;30.832;2024-03-25T04:07:15;23.10;21.70;13.80
42002;PMS7003;27693;50.506;30.832;2024-03-25T04:08:18;23.00;18.20;14.00
42002;PMS7003;27693;50.506;30.832;2024-03-25T04:09:21;19.73;16.82;13.73
42002;PMS7003;27693;50.506;30.832;2024-03-25T04:10:26;22.30;13.40;9.60
42002;PMS7003;27693;50.506;30.832;2024-03-25T04:11:29;23.70;18.90;12.40
42002;PMS7003;27693;50.506;30.832;2024-03-25T04:12:32;23.80;20.80;14.90
42002;PMS7003;27693;50.506;30.832;2024-03-25T04:13:34;42.80;28.90;20.30
42002;PMS7003;27693;50.506;30.832;2024-03-25T04:14:37;42.00;32.60;21.80
42002;PMS7003;27693;50.506;30.832;2024-03-25T04:15:40;41.60;30.70;21.30
42002;PMS7003;27693;50.506;30.832;2024-03-25T04:16:45;42.00;31.60;21.10
42002;PMS7003;27693;50.506;30.832;2024-03-25T04:17:49;26.80;23.20;13.00
42002;PMS7003;27693;50.506;30.832;2024-03-25T04:18:51;42.00;29.80;19.10
42002;PMS7003;27693;50.506;30.832;2024-03-25T04:19:53;33.70;27.50;17.00
42002;PMS7003;27693;50.506;30.832;2024-03-25T04:20:56;29.70;24.40;15.80
42002;PMS7003;27693;50.506;30.832;2024-03-25T04:21:58;24.70;21.50;14.60
42002;PMS7003;27693;50.506;30.832;2024-03-25T04:23:00;23.90;19.60;14.30
42002;PMS7003;27693;50.506;30.832;2024-03-25T04:24:03;25.00;18.90;13.80
42002;PMS7003;27693;50.506;30.832;2024-03-25T04:25:06;21.50;17.10;12.60
42002;PMS7003;27693;50.506;30.832;2024-03-25T04:26:10;19.40;16.60;11.70
42002;PMS7003;27693;50.506;30.832;2024-03-25T04:27:12;17.40;14.00;11.20
42002;PMS7003;27693;50.506;30.832;2024-03-25T04:28:14;15.90;12.90;10.00
42002;PMS7003;27693;50.506;30.832;2024-03-25T04:29:17;20.60;13.80;10.90
42002;PMS7003;27693;50.506;30.832;2024-03-25T04:30:19;13.20;12.00;9.80
42002;PMS7003;27693;50.506;30.832;2024-03-25T04:31:22;17.18;15.27;10.45
42002;PMS7003;27693;50.506;30.832;2024-03-25T04:32:25;16.70;14.10;10.00
42002;PMS7003;27693;50.506;30.832;2024-03-25T04:33:27;16.30;13.70;10.60
42002;PMS7003;27693;50.506;30.832;2024-03-25T04:34:30;17.10;15.30;10.90
42002;PMS7003;27693;50.506;30.832;2024-03-25T04:35:32;18.20;14.30;11.60
42002;PMS7003;27693;50.506;30.832;2024-03-25T04:36:35;18.09;13.64;10.27
42002;PMS7003;27693;50.506;30.832;2024-03-25T04:37:37;12.10;12.10;8.60
42002;PMS7003;27693;50.506;30.832;2024-03-25T04:38:40;11.27;10.27;8.18
42002;PMS7003;27693;50.506;30.832;2024-03-25T04:39:42;10.30;9.30;8.00
42002;PMS7003;27693;50.506;30.832;2024-03-25T04:40:45;8.80;7.70;6.20
42002;PMS7003;27693;50.506;30.832;2024-03-25T04:41:48;10.30;9.00;7.30
42002;PMS7003;27693;50.506;30.832;2024-03-25T04:42:50;8.80;8.20;6.70
42002;PMS7003;27693;50.506;30.832;2024-03-25T04:43:52;7.50;6.60;5.20
42002;PMS7003;27693;50.506;30.832;2024-03-25T04:44:54;7.00;6.20;4.90
42002;PMS7003;27693;50.506;30.832;2024-03-25T04:46:00;8.40;6.00;4.80
42002;PMS7003;27693;50.506;30.832;2024-03-25T04:47:04;9.60;5.60;4.80
42002;PMS7003;27693;50.506;30.832;2024-03-25T04:48:07;6.30;6.30;5.00
42002;PMS7003;27693;50.506;30.832;2024-03-25T04:49:09;9.30;7.70;6.40
42002;PMS7003;27693;50.506;30.832;2024-03-25T04:50:12;6.80;5.20;4.30
42002;PMS7003;27693;50.506;30.832;2024-03-25T04:51:14;9.20;7.60;6.50
42002;PMS7003;27693;50.506;30.832;2024-03-25T04:52:16;8.40;7.60;6.60
42002;PMS7003;27693;50.506;30.832;2024-03-25T04:53:19;9.00;8.00;6.20
42002;PMS7003;27693;50.506;30.832;2024-03-25T04:54:21;12.10;10.90;8.80
42002;PMS7003;27693;50.506;30.832;2024-03-25T04:55:25;14.80;12.30;9.50
42002;PMS7003;27693;50.506;30.832;2024-03-25T04:56:28;13.80;10.20;8.30
42002;PMS7003;27693;50.506;30.832;2024-03-25T04:57:32;12.40;11.50;9.00
42002;PMS7003;27693;50.506;30.832;2024-03-25T04:58:35;17.00;12.10;9.80
42002;PMS7003;27693;50.506;30.832;2024-03-25T04:59:37;11.80;11.20;9.50
42002;PMS7003;27693;50.506;30.832;2024-03-25T05:00:39;14.00;12.20;9.60
42002;PMS7003;27693;50.506;30.832;2024-03-25T05:01:42;14.00;11.30;8.70
42002;PMS7003;27693;50.506;30.832;2024-03-25T05:02:44;11.60;11.00;9.50
42002;PMS7003;27693;50.506;30.832;2024-03-25T05:03:46;16.10;11.40;9.60
42002;PMS7003;27693;50.506;30.832;2024-03-25T05:04:49;13.80;12.70;10.20
42002;PMS7003;27693;50.506;30.832;2024-03-25T05:05:51;16.90;13.10;11.10
42002;PMS7003;27693;50.506;30.832;2024-03-25T05:06:53;11.90;9.80;7.50
42002;PMS7003;27693;50.506;30.832;2024-03-25T05:07:55;10.20;10.10;7.40
42002;PMS7003;27693;50.506;30.832;2024-03-25T05:08:58;12.50;10.10;8.90
42002;PMS7003;27693;50.506;30.832;2024-03-25T05:10:00;10.30;9.60;7.90
42002;PMS7003;27693;50.506;30.832;2024-03-25T05:11:04;10.60;10.10;8.30
42002;PMS7003;27693;50.506;30.832;2024-03-25T05:12:07;9.50;7.40;5.70
42002;PMS7003;27693;50.506;30.832;2024-03-25T05:13:09;13.10;10.00;8.00
42002;PMS7003;27693;50.506;30.832;2024-03-25T05:14:11;9.10;8.50;7.20
42002;PMS7003;27693;50.506;30.832;2024-03-25T05:15:14;9.80;7.70;6.70
42002;PMS7003;27693;50.506;30.832;2024-03-25T05:16:17;9.50;8.60;7.40
42002;PMS7003;27693;50.506;30.832;2024-03-25T05:17:19;8.20;8.10;6.50
42002;PMS7003;27693;50.506;30.832;2024-03-25T05:18:21;10.40;7.30;5.30
42002;PMS7003;27693;50.506;30.832;2024-03-25T05:19:24;7.30;6.40;5.20
42002;PMS7003;27693;50.506;30.832;2024-03-25T05:20:27;8.55;7.09;5.82
42002;PMS7003;27693;50.506;30.832;2024-03-25T05:21:32;7.30;6.20;5.10
42002;PMS7003;27693;50.506;30.832;2024-03-25T05:22:35;8.00;7.00;5.80
42002;PMS7003;27693;50.506;30.832;2024-03-25T05:23:37;8.40;6.60;5.20
42002;PMS7003;27693;50.506;30.832;2024-03-25T05:24:40;7.00;6.40;5.90
42002;PMS7003;27693;50.506;30.832;2024-03-25T05:25:43;10.70;8.00;6.80
42002;PMS7003;27693;50.506;30.832;2024-03-25T05:26:47;10.00;7.90;6.90
42002;PMS7003;27693;50.506;30.832;2024-03-25T05:27:49;8.80;8.10;6.80
42002;PMS7003;27693;50.506;30.832;2024-03-25T05:28:54;7.30;7.20;6.30
42002;PMS7003;27693;50.506;30.832;2024-03-25T05:29:57;7.00;5.80;5.20
42002;PMS7003;27693;50.506;30.832;2024-03-25T05:31:06;7.50;6.20;5.40
42002;PMS7003;27693;50.506;30.832;2024-03-25T05:32:11;5.80;5.40;4.80
42002;PMS7003;27693;50.506;30.832;2024-03-25T05:33:14;6.90;6.90;5.50
42002;PMS7003;27693;50.506;30.832;2024-03-25T05:34:16;7.90;6.70;5.60
42002;PMS7003;27693;50.506;30.832;2024-03-25T05:35:19;6.40;5.50;4.70
42002;PMS7003;27693;50.506;30.832;2024-03-25T05:36:23;7.80;5.50;5.00
42002;PMS7003;27693;50.506;30.832;2024-03-25T05:37:25;6.30;5.50;4.70
42002;PMS7003;27693;50.506;30.832;2024-03-25T05:38:29;5.00;5.00;3.90
42002;PMS7003;27693;50.506;30.832;2024-03-25T05:39:31;7.00;5.30;4.60
42002;PMS7003;27693;50.506;30.832;2024-03-25T05:40:34;8.00;5.40;4.50
42002;PMS7003;27693;50.506;30.832;2024-03-25T05:41:37;8.00;6.10;5.20
42002;PMS7003;27693;50.506;30.832;2024-03-25T05:42:39;6.90;6.40;5.40
42002;PMS7003;27693;50.506;30.832;2024-03-25T05:43:41;6.00;5.30;4.70
42002;PMS7003;27693;50.506;30.832;2024-03-25T05:44:45;6.40;5.90;4.80
42002;PMS7003;27693;50.506;30.832;2024-03-25T05:45:51;6.80;5.60;4.50
42002;PMS7003;27693;50.506;30.832;2024-03-25T05:46:57;9.40;6.90;6.00
42002;PMS7003;27693;50.506;30.832;2024-03-25T05:48:00;8.00;6.30;5.70
42002;PMS7003;27693;50.506;30.832;2024-03-25T05:49:02;7.50;6.90;5.50
42002;PMS7003;27693;50.506;30.832;2024-03-25T05:50:06;10.70;8.30;6.90